sensor_id;sensor_type;location;lat;lon;timestamp;P1;durP1;ratioP1;P2;durP2;ratioP2
5987;SDS011;3021;51.000;6.980;2023-04-03T00:01:52;11.00;;;5.38;;
5987;SDS011;3021;51.000;6.980;2023-04-03T00:04:18;8.27;;;5.45;;
5987;SDS011;3021;51.000;6.980;2023-04-03T00:06:43;10.05;;;5.75;;
5987;SDS011;3021;51.000;6.980;2023-04-03T00:09:08;9.27;;;5.85;;
5987;SDS011;3021;51.000;6.980;2023-04-03T00:11:34;8.15;;;5.72;;
5987;SDS011;3021;51.000;6.980;2023-04-03T00:13:59;9.23;;;6.07;;
5987;SDS011;3021;51.000;6.980;2023-04-03T00:16:25;11.18;;;5.80;;
5987;SDS011;3021;51.000;6.980;2023-04-03T00:18:50;8.93;;;5.30;;
5987;SDS011;3021;51.000;6.980;2023-04-03T00:21:15;10.15;;;5.18;;
5987;SDS011;3021;51.000;6.980;2023-04-03T00:23:41;10.45;;;5.50;;
5987;SDS011;3021;51.000;6.980;2023-04-03T00:26:07;7.63;;;5.45;;
5987;SDS011;3021;51.000;6.980;2023-04-03T00:28:32;8.73;;;5.18;;
5987;SDS011;3021;51.000;6.980;2023-04-03T00:30:57;11.95;;;5.43;;
5987;SDS011;3021;51.000;6.980;2023-04-03T00:33:23;8.85;;;5.38;;
5987;SDS011;3021;51.000;6.980;2023-04-03T00:35:49;9.13;;;5.70;;
5987;SDS011;3021;51.000;6.980;2023-04-03T00:38:15;10.35;;;5.53;;
5987;SDS011;3021;51.000;6.980;2023-04-03T00:40:42;11.05;;;5.38;;
5987;SDS011;3021;51.000;6.980;2023-04-03T00:43:17;7.22;;;4.72;;
5987;SDS011;3021;51.000;6.980;2023-04-03T00:45:48;8.13;;;5.22;;
5987;SDS011;3021;51.000;6.980;2023-04-03T00:48:26;7.65;;;5.30;;
5987;SDS011;3021;51.000;6.980;2023-04-03T00:50:52;9.18;;;5.28;;
5987;SDS011;3021;51.000;6.980;2023-04-03T00:53:21;8.00;;;5.15;;
5987;SDS011;3021;51.000;6.980;2023-04-03T00:55:50;6.95;;;5.03;;
5987;SDS011;3021;51.000;6.980;2023-04-03T00:58:17;8.88;;;5.50;;
5987;SDS011;3021;51.000;6.980;2023-04-03T01:00:48;9.52;;;5.40;;
5987;SDS011;3021;51.000;6.980;2023-04-03T01:03:21;6.38;;;4.90;;
5987;SDS011;3021;51.000;6.980;2023-04-03T01:05:47;8.35;;;5.28;;
5987;SDS011;3021;51.000;6.980;2023-04-03T01:08:12;7.90;;;4.43;;
5987;SDS011;3021;51.000;6.980;2023-04-03T01:10:37;8.70;;;4.70;;
5987;SDS011;3021;51.000;6.980;2023-04-03T01:13:08;8.10;;;4.75;;
5987;SDS011;3021;51.000;6.980;2023-04-03T01:15:43;7.25;;;4.40;;
5987;SDS011;3021;51.000;6.980;2023-04-03T01:18:09;6.75;;;4.70;;
5987;SDS011;3021;51.000;6.980;2023-04-03T01:23:26;7.15;;;4.78;;
5987;SDS011;3021;51.000;6.980;2023-04-03T01:25:59;6.60;;;4.78;;
5987;SDS011;3021;51.000;6.980;2023-04-03T01:28:26;10.98;;;5.13;;
5987;SDS011;3021;51.000;6.980;2023-04-03T01:33:45;11.02;;;5.50;;
5987;SDS011;3021;51.000;6.980;2023-04-03T01:36:13;7.50;;;5.38;;
5987;SDS011;3021;51.000;6.980;2023-04-03T01:38:41;7.93;;;4.55;;
5987;SDS011;3021;51.000;6.980;2023-04-03T01:41:06;10.90;;;4.90;;
5987;SDS011;3021;51.000;6.980;2023-04-03T01:43:31;8.30;;;4.40;;
5987;SDS011;3021;51.000;6.980;2023-04-03T01:45:57;6.15;;;4.78;;
5987;SDS011;3021;51.000;6.980;2023-04-03T01:48:22;10.90;;;5.25;;
5987;SDS011;3021;51.000;6.980;2023-04-03T01:50:48;8.18;;;5.45;;
5987;SDS011;3021;51.000;6.980;2023-04-03T01:53:13;9.63;;;5.15;;
5987;SDS011;3021;51.000;6.980;2023-04-03T01:55:39;7.82;;;4.93;;
5987;SDS011;3021;51.000;6.980;2023-04-03T01:58:04;7.93;;;4.82;;
5987;SDS011;3021;51.000;6.980;2023-04-03T02:00:29;13.23;;;5.80;;
5987;SDS011;3021;51.000;6.980;2023-04-03T02:02:55;6.90;;;4.90;;
5987;SDS011;3021;51.000;6.980;2023-04-03T02:05:21;5.28;;;3.85;;
5987;SDS011;3021;51.000;6.980;2023-04-03T02:07:47;6.25;;;4.18;;
5987;SDS011;3021;51.000;6.980;2023-04-03T02:10:12;9.55;;;4.60;;
5987;SDS011;3021;51.000;6.980;2023-04-03T02:12:38;7.28;;;4.95;;
5987;SDS011;3021;51.000;6.980;2023-04-03T02:15:03;4.53;;;3.95;;
5987;SDS011;3021;51.000;6.980;2023-04-03T02:17:29;6.65;;;4.47;;
5987;SDS011;3021;51.000;6.980;2023-04-03T02:19:55;7.20;;;4.30;;
5987;SDS011;3021;51.000;6.980;2023-04-03T02:22:20;9.77;;;4.50;;
5987;SDS011;3021;51.000;6.980;2023-04-03T02:24:45;9.40;;;4.03;;
5987;SDS011;3021;51.000;6.980;2023-04-03T02:27:11;9.63;;;4.88;;
5987;SDS011;3021;51.000;6.980;2023-04-03T02:29:36;8.90;;;4.10;;
5987;SDS011;3021;51.000;6.980;2023-04-03T02:32:01;5.72;;;4.07;;
5987;SDS011;3021;51.000;6.980;2023-04-03T02:34:27;6.47;;;4.30;;
5987;SDS011;3021;51.000;6.980;2023-04-03T02:36:52;7.80;;;4.18;;
5987;SDS011;3021;51.000;6.980;2023-04-03T02:39:17;10.30;;;4.63;;
5987;SDS011;3021;51.000;6.980;2023-04-03T02:41:43;6.60;;;4.25;;
5987;SDS011;3021;51.000;6.980;2023-04-03T02:44:09;7.43;;;4.38;;
5987;SDS011;3021;51.000;6.980;2023-04-03T02:46:35;7.78;;;4.35;;
5987;SDS011;3021;51.000;6.980;2023-04-03T02:49:01;5.30;;;4.03;;
5987;SDS011;3021;51.000;6.980;2023-04-03T02:51:27;7.72;;;4.10;;
5987;SDS011;3021;51.000;6.980;2023-04-03T02:53:52;7.45;;;4.55;;
5987;SDS011;3021;51.000;6.980;2023-04-03T02:56:18;6.68;;;4.40;;
5987;SDS011;3021;51.000;6.980;2023-04-03T02:58:44;9.45;;;4.68;;
5987;SDS011;3021;51.000;6.980;2023-04-03T03:01:10;7.00;;;4.22;;
5987;SDS011;3021;51.000;6.980;2023-04-03T03:03:36;10.18;;;4.47;;
5987;SDS011;3021;51.000;6.980;2023-04-03T03:06:09;7.25;;;4.20;;
5987;SDS011;3021;51.000;6.980;2023-04-03T03:08:37;6.65;;;4.10;;
5987;SDS011;3021;51.000;6.980;2023-04-03T03:11:02;7.75;;;3.70;;
5987;SDS011;3021;51.000;6.980;2023-04-03T03:13:29;12.27;;;4.40;;
5987;SDS011;3021;51.000;6.980;2023-04-03T03:15:55;6.72;;;4.50;;
5987;SDS011;3021;51.000;6.980;2023-04-03T03:18:20;9.05;;;3.78;;
5987;SDS011;3021;51.000;6.980;2023-04-03T03:20:46;7.47;;;4.28;;
5987;SDS011;3021;51.000;6.980;2023-04-03T03:23:11;11.05;;;3.72;;
5987;SDS011;3021;51.000;6.980;2023-04-03T03:25:40;9.75;;;4.57;;
5987;SDS011;3021;51.000;6.980;2023-04-03T03:28:05;7.90;;;4.20;;
5987;SDS011;3021;51.000;6.980;2023-04-03T03:30:31;7.22;;;3.80;;
5987;SDS011;3021;51.000;6.980;2023-04-03T03:32:57;12.13;;;4.68;;
5987;SDS011;3021;51.000;6.980;2023-04-03T03:35:23;6.55;;;3.80;;
5987;SDS011;3021;51.000;6.980;2023-04-03T03:37:48;10.40;;;4.45;;
5987;SDS011;3021;51.000;6.980;2023-04-03T03:40:13;11.90;;;4.18;;
5987;SDS011;3021;51.000;6.980;2023-04-03T03:42:39;6.25;;;3.55;;
5987;SDS011;3021;51.000;6.980;2023-04-03T03:45:05;6.20;;;3.40;;
5987;SDS011;3021;51.000;6.980;2023-04-03T03:47:31;4.90;;;3.55;;
5987;SDS011;3021;51.000;6.980;2023-04-03T03:49:56;5.13;;;3.70;;
5987;SDS011;3021;51.000;6.980;2023-04-03T03:52:21;7.95;;;3.30;;
5987;SDS011;3021;51.000;6.980;2023-04-03T03:54:47;6.05;;;3.42;;
5987;SDS011;3021;51.000;6.980;2023-04-03T03:57:12;7.75;;;3.88;;
5987;SDS011;3021;51.000;6.980;2023-04-03T03:59:37;4.93;;;2.97;;
5987;SDS011;3021;51.000;6.980;2023-04-03T04:02:05;3.33;;;3.03;;
5987;SDS011;3021;51.000;6.980;2023-04-03T04:04:30;5.95;;;3.30;;
5987;SDS011;3021;51.000;6.980;2023-04-03T04:06:55;6.00;;;3.30;;
5987;SDS011;3021;51.000;6.980;2023-04-03T04:09:21;5.82;;;2.83;;
5987;SDS011;3021;51.000;6.980;2023-04-03T04:11:46;5.88;;;2.90;;
5987;SDS011;3021;51.000;6.980;2023-04-03T04:14:12;7.95;;;3.00;;
5987;SDS011;3021;51.000;6.980;2023-04-03T04:16:38;5.28;;;2.83;;
5987;SDS011;3021;51.000;6.980;2023-04-03T04:19:03;3.42;;;2.47;;
5987;SDS011;3021;51.000;6.980;2023-04-03T04:21:29;6.50;;;3.20;;
5987;SDS011;3021;51.000;6.980;2023-04-03T04:23:54;8.13;;;3.03;;
5987;SDS011;3021;51.000;6.980;2023-04-03T04:26:19;5.28;;;2.70;;
5987;SDS011;3021;51.000;6.980;2023-04-03T04:28:46;5.28;;;2.80;;
5987;SDS011;3021;51.000;6.980;2023-04-03T04:31:11;8.80;;;3.30;;
5987;SDS011;3021;51.000;6.980;2023-04-03T04:33:36;8.32;;;3.10;;
5987;SDS011;3021;51.000;6.980;2023-04-03T04:36:02;6.20;;;3.00;;
5987;SDS011;3021;51.000;6.980;2023-04-03T04:38:27;5.95;;;3.00;;
5987;SDS011;3021;51.000;6.980;2023-04-03T04:40:53;7.82;;;2.58;;
5987;SDS011;3021;51.000;6.980;2023-04-03T04:43:18;5.10;;;2.53;;
5987;SDS011;3021;51.000;6.980;2023-04-03T04:45:43;5.05;;;2.70;;
5987;SDS011;3021;51.000;6.980;2023-04-03T04:48:09;7.30;;;2.78;;
5987;SDS011;3021;51.000;6.980;2023-04-03T04:50:35;7.38;;;3.08;;
5987;SDS011;3021;51.000;6.980;2023-04-03T04:53:00;6.93;;;2.83;;
5987;SDS011;3021;51.000;6.980;2023-04-03T04:55:25;5.45;;;2.63;;
5987;SDS011;3021;51.000;6.980;2023-04-03T04:57:51;6.10;;;2.63;;
5987;SDS011;3021;51.000;6.980;2023-04-03T05:00:16;6.22;;;3.40;;
5987;SDS011;3021;51.000;6.980;2023-04-03T05:02:42;5.55;;;2.47;;
5987;SDS011;3021;51.000;6.980;2023-04-03T05:05:08;5.65;;;2.35;;
5987;SDS011;3021;51.000;6.980;2023-04-03T05:07:33;5.35;;;2.70;;
5987;SDS011;3021;51.000;6.980;2023-04-03T05:10:00;6.95;;;2.70;;
5987;SDS011;3021;51.000;6.980;2023-04-03T05:12:26;4.85;;;3.00;;
5987;SDS011;3021;51.000;6.980;2023-04-03T05:14:51;3.65;;;2.30;;
5987;SDS011;3021;51.000;6.980;2023-04-03T05:17:16;4.68;;;4.00;;
5987;SDS011;3021;51.000;6.980;2023-04-03T05:19:42;6.20;;;2.63;;
5987;SDS011;3021;51.000;6.980;2023-04-03T05:22:07;9.90;;;2.97;;
5987;SDS011;3021;51.000;6.980;2023-04-03T05:24:32;9.10;;;2.60;;
5987;SDS011;3021;51.000;6.980;2023-04-03T05:26:58;9.25;;;2.75;;
5987;SDS011;3021;51.000;6.980;2023-04-03T05:29:23;4.40;;;2.58;;
5987;SDS011;3021;51.000;6.980;2023-04-03T05:31:49;4.03;;;2.30;;
5987;SDS011;3021;51.000;6.980;2023-04-03T05:34:15;7.22;;;3.00;;
5987;SDS011;3021;51.000;6.980;2023-04-03T05:36:41;8.85;;;2.70;;
5987;SDS011;3021;51.000;6.980;2023-04-03T05:39:06;6.10;;;2.78;;
5987;SDS011;3021;51.000;6.980;2023-04-03T05:41:32;8.75;;;2.80;;
5987;SDS011;3021;51.000;6.980;2023-04-03T05:43:57;4.40;;;2.40;;
5987;SDS011;3021;51.000;6.980;2023-04-03T05:46:22;8.35;;;2.80;;
5987;SDS011;3021;51.000;6.980;2023-04-03T05:48:48;7.45;;;3.15;;
5987;SDS011;3021;51.000;6.980;2023-04-03T05:51:17;5.68;;;2.75;;
5987;SDS011;3021;51.000;6.980;2023-04-03T05:53:44;6.80;;;2.53;;
5987;SDS011;3021;51.000;6.980;2023-04-03T05:56:11;5.05;;;2.70;;
5987;SDS011;3021;51.000;6.980;2023-04-03T05:58:37;6.55;;;3.05;;
5987;SDS011;3021;51.000;6.980;2023-04-03T06:01:02;6.28;;;2.45;;
5987;SDS011;3021;51.000;6.980;2023-04-03T06:03:28;5.95;;;2.80;;
5987;SDS011;3021;51.000;6.980;2023-04-03T06:05:53;7.68;;;2.45;;
5987;SDS011;3021;51.000;6.980;2023-04-03T06:08:18;3.97;;;2.38;;
5987;SDS011;3021;51.000;6.980;2023-04-03T06:10:44;5.63;;;2.20;;
5987;SDS011;3021;51.000;6.980;2023-04-03T06:13:10;4.75;;;2.35;;
5987;SDS011;3021;51.000;6.980;2023-04-03T06:15:36;7.35;;;2.20;;
5987;SDS011;3021;51.000;6.980;2023-04-03T06:18:01;6.10;;;2.15;;
5987;SDS011;3021;51.000;6.980;2023-04-03T06:20:27;6.00;;;2.28;;
5987;SDS011;3021;51.000;6.980;2023-04-03T06:22:52;5.07;;;2.08;;
5987;SDS011;3021;51.000;6.980;2023-04-03T06:25:18;4.32;;;1.60;;
5987;SDS011;3021;51.000;6.980;2023-04-03T06:27:44;6.95;;;2.00;;
5987;SDS011;3021;51.000;6.980;2023-04-03T06:30:09;4.22;;;1.98;;
5987;SDS011;3021;51.000;6.980;2023-04-03T06:32:35;5.78;;;2.47;;
5987;SDS011;3021;51.000;6.980;2023-04-03T06:35:01;3.50;;;1.50;;
5987;SDS011;3021;51.000;6.980;2023-04-03T06:37:26;2.50;;;1.55;;
5987;SDS011;3021;51.000;6.980;2023-04-03T06:39:54;6.53;;;2.05;;
5987;SDS011;3021;51.000;6.980;2023-04-03T06:42:19;3.83;;;1.92;;
5987;SDS011;3021;51.000;6.980;2023-04-03T06:44:45;3.72;;;2.00;;
5987;SDS011;3021;51.000;6.980;2023-04-03T06:47:11;5.05;;;1.95;;
5987;SDS011;3021;51.000;6.980;2023-04-03T06:49:38;6.00;;;2.05;;
5987;SDS011;3021;51.000;6.980;2023-04-03T06:52:03;4.78;;;1.92;;
5987;SDS011;3021;51.000;6.980;2023-04-03T06:54:30;7.70;;;2.10;;
5987;SDS011;3021;51.000;6.980;2023-04-03T06:56:55;4.85;;;1.67;;
5987;SDS011;3021;51.000;6.980;2023-04-03T06:59:21;3.63;;;2.00;;
5987;SDS011;3021;51.000;6.980;2023-04-03T07:01:46;6.15;;;2.30;;
5987;SDS011;3021;51.000;6.980;2023-04-03T07:04:12;5.32;;;1.67;;
5987;SDS011;3021;51.000;6.980;2023-04-03T07:06:37;16.83;;;3.53;;
5987;SDS011;3021;51.000;6.980;2023-04-03T07:09:03;8.10;;;2.10;;
5987;SDS011;3021;51.000;6.980;2023-04-03T07:11:28;4.82;;;2.20;;
5987;SDS011;3021;51.000;6.980;2023-04-03T07:13:54;3.30;;;1.88;;
5987;SDS011;3021;51.000;6.980;2023-04-03T07:16:20;6.28;;;2.00;;
5987;SDS011;3021;51.000;6.980;2023-04-03T07:18:48;4.45;;;1.77;;
5987;SDS011;3021;51.000;6.980;2023-04-03T07:21:13;7.75;;;2.22;;
5987;SDS011;3021;51.000;6.980;2023-04-03T07:23:39;8.68;;;1.83;;
5987;SDS011;3021;51.000;6.980;2023-04-03T07:26:04;6.55;;;1.95;;
5987;SDS011;3021;51.000;6.980;2023-04-03T07:28:30;4.80;;;1.42;;
5987;SDS011;3021;51.000;6.980;2023-04-03T07:31:00;7.43;;;1.73;;
5987;SDS011;3021;51.000;6.980;2023-04-03T07:33:31;8.32;;;2.17;;
5987;SDS011;3021;51.000;6.980;2023-04-03T07:35:57;3.92;;;1.50;;
5987;SDS011;3021;51.000;6.980;2023-04-03T07:38:23;3.05;;;1.73;;
5987;SDS011;3021;51.000;6.980;2023-04-03T07:40:49;5.53;;;1.80;;
5987;SDS011;3021;51.000;6.980;2023-04-03T07:43:17;4.53;;;1.55;;
5987;SDS011;3021;51.000;6.980;2023-04-03T07:45:43;7.95;;;1.65;;
5987;SDS011;3021;51.000;6.980;2023-04-03T07:48:09;7.13;;;1.95;;
5987;SDS011;3021;51.000;6.980;2023-04-03T07:50:35;7.38;;;1.85;;
5987;SDS011;3021;51.000;6.980;2023-04-03T07:53:01;4.03;;;1.92;;
5987;SDS011;3021;51.000;6.980;2023-04-03T07:55:27;5.13;;;1.92;;
5987;SDS011;3021;51.000;6.980;2023-04-03T07:57:53;13.00;;;1.95;;
5987;SDS011;3021;51.000;6.980;2023-04-03T08:00:18;3.55;;;1.42;;
5987;SDS011;3021;51.000;6.980;2023-04-03T08:02:44;6.85;;;2.08;;
5987;SDS011;3021;51.000;6.980;2023-04-03T08:05:15;6.25;;;2.05;;
5987;SDS011;3021;51.000;6.980;2023-04-03T08:07:42;6.72;;;1.83;;
5987;SDS011;3021;51.000;6.980;2023-04-03T08:10:07;6.22;;;2.17;;
5987;SDS011;3021;51.000;6.980;2023-04-03T08:12:33;5.13;;;1.80;;
5987;SDS011;3021;51.000;6.980;2023-04-03T08:14:59;5.75;;;1.88;;
5987;SDS011;3021;51.000;6.980;2023-04-03T08:17:25;4.82;;;1.90;;
5987;SDS011;3021;51.000;6.980;2023-04-03T08:19:51;7.18;;;1.95;;
5987;SDS011;3021;51.000;6.980;2023-04-03T08:22:16;4.28;;;1.88;;
5987;SDS011;3021;51.000;6.980;2023-04-03T08:24:42;6.00;;;1.92;;
5987;SDS011;3021;51.000;6.980;2023-04-03T08:27:07;4.15;;;1.55;;
5987;SDS011;3021;51.000;6.980;2023-04-03T08:29:32;5.05;;;1.80;;
5987;SDS011;3021;51.000;6.980;2023-04-03T08:31:58;4.88;;;1.60;;
5987;SDS011;3021;51.000;6.980;2023-04-03T08:34:23;3.45;;;1.55;;
5987;SDS011;3021;51.000;6.980;2023-04-03T08:36:48;3.80;;;1.77;;
5987;SDS011;3021;51.000;6.980;2023-04-03T08:39:14;4.63;;;1.80;;
5987;SDS011;3021;51.000;6.980;2023-04-03T08:41:40;6.50;;;1.90;;
5987;SDS011;3021;51.000;6.980;2023-04-03T08:49:56;5.60;;;1.65;;
5987;SDS011;3021;51.000;6.980;2023-04-03T08:54:58;4.43;;;1.60;;
5987;SDS011;3021;51.000;6.980;2023-04-03T08:57:39;2.53;;;1.40;;
5987;SDS011;3021;51.000;6.980;2023-04-03T09:00:18;5.03;;;1.60;;
5987;SDS011;3021;51.000;6.980;2023-04-03T09:02:52;4.80;;;1.50;;
5987;SDS011;3021;51.000;6.980;2023-04-03T09:05:21;4.22;;;1.80;;
5987;SDS011;3021;51.000;6.980;2023-04-03T09:07:58;4.88;;;1.55;;
5987;SDS011;3021;51.000;6.980;2023-04-03T09:10:28;4.90;;;1.67;;
5987;SDS011;3021;51.000;6.980;2023-04-03T09:12:59;2.28;;;1.25;;
5987;SDS011;3021;51.000;6.980;2023-04-03T09:15:32;3.25;;;1.30;;
5987;SDS011;3021;51.000;6.980;2023-04-03T09:26:06;4.60;;;1.35;;
5987;SDS011;3021;51.000;6.980;2023-04-03T09:28:38;3.42;;;1.45;;
5987;SDS011;3021;51.000;6.980;2023-04-03T09:33:49;4.45;;;1.40;;
5987;SDS011;3021;51.000;6.980;2023-04-03T09:39:16;4.53;;;1.38;;
5987;SDS011;3021;51.000;6.980;2023-04-03T09:42:03;3.47;;;1.40;;
5987;SDS011;3021;51.000;6.980;2023-04-03T09:44:34;2.33;;;1.23;;
5987;SDS011;3021;51.000;6.980;2023-04-03T09:47:17;3.58;;;1.45;;
5987;SDS011;3021;51.000;6.980;2023-04-03T09:49:44;6.30;;;2.38;;
5987;SDS011;3021;51.000;6.980;2023-04-03T09:52:22;3.40;;;1.48;;
5987;SDS011;3021;51.000;6.980;2023-04-03T09:54:49;2.70;;;1.40;;
5987;SDS011;3021;51.000;6.980;2023-04-03T09:57:14;5.03;;;1.63;;
5987;SDS011;3021;51.000;6.980;2023-04-03T09:59:44;4.40;;;1.65;;
5987;SDS011;3021;51.000;6.980;2023-04-03T10:04:52;3.45;;;1.80;;
5987;SDS011;3021;51.000;6.980;2023-04-03T10:07:31;2.67;;;1.55;;
5987;SDS011;3021;51.000;6.980;2023-04-03T10:10:00;2.97;;;1.38;;
5987;SDS011;3021;51.000;6.980;2023-04-03T10:12:43;4.03;;;1.58;;
5987;SDS011;3021;51.000;6.980;2023-04-03T10:15:13;2.90;;;1.40;;
5987;SDS011;3021;51.000;6.980;2023-04-03T10:17:50;3.53;;;1.20;;
5987;SDS011;3021;51.000;6.980;2023-04-03T10:32:02;4.97;;;1.30;;
5987;SDS011;3021;51.000;6.980;2023-04-03T10:34:35;3.33;;;1.42;;
5987;SDS011;3021;51.000;6.980;2023-04-03T10:39:53;2.63;;;1.23;;
5987;SDS011;3021;51.000;6.980;2023-04-03T10:45:19;3.00;;;1.40;;
5987;SDS011;3021;51.000;6.980;2023-04-03T10:50:23;3.33;;;1.60;;
5987;SDS011;3021;51.000;6.980;2023-04-03T10:52:57;2.92;;;1.25;;
5987;SDS011;3021;51.000;6.980;2023-04-03T10:58:13;3.05;;;1.30;;
5987;SDS011;3021;51.000;6.980;2023-04-03T11:00:50;4.95;;;1.65;;
5987;SDS011;3021;51.000;6.980;2023-04-03T11:05:57;1.95;;;1.30;;
5987;SDS011;3021;51.000;6.980;2023-04-03T11:08:32;2.78;;;1.10;;
5987;SDS011;3021;51.000;6.980;2023-04-03T11:11:22;2.90;;;1.52;;
5987;SDS011;3021;51.000;6.980;2023-04-03T11:14:02;6.28;;;1.13;;
5987;SDS011;3021;51.000;6.980;2023-04-03T11:16:30;3.97;;;1.30;;
5987;SDS011;3021;51.000;6.980;2023-04-03T11:21:37;2.35;;;1.30;;
5987;SDS011;3021;51.000;6.980;2023-04-03T11:24:08;6.40;;;1.58;;
5987;SDS011;3021;51.000;6.980;2023-04-03T11:26:42;3.47;;;1.38;;
5987;SDS011;3021;51.000;6.980;2023-04-03T11:29:15;3.35;;;1.08;;
5987;SDS011;3021;51.000;6.980;2023-04-03T11:32:08;5.25;;;1.48;;
5987;SDS011;3021;51.000;6.980;2023-04-03T11:37:06;3.15;;;0.93;;
5987;SDS011;3021;51.000;6.980;2023-04-03T11:39:40;2.55;;;0.95;;
5987;SDS011;3021;51.000;6.980;2023-04-03T12:05:49;2.78;;;1.20;;
5987;SDS011;3021;51.000;6.980;2023-04-03T12:08:22;1.02;;;0.88;;
5987;SDS011;3021;51.000;6.980;2023-04-03T12:13:33;2.70;;;0.93;;
5987;SDS011;3021;51.000;6.980;2023-04-03T12:15:59;3.67;;;0.82;;
5987;SDS011;3021;51.000;6.980;2023-04-03T12:21:08;3.03;;;1.00;;
5987;SDS011;3021;51.000;6.980;2023-04-03T12:23:35;1.38;;;1.00;;
5987;SDS011;3021;51.000;6.980;2023-04-03T12:26:22;1.55;;;0.85;;
5987;SDS011;3021;51.000;6.980;2023-04-03T12:28:51;2.15;;;0.95;;
5987;SDS011;3021;51.000;6.980;2023-04-03T12:31:18;3.20;;;1.30;;
5987;SDS011;3021;51.000;6.980;2023-04-03T12:33:57;2.33;;;1.02;;
5987;SDS011;3021;51.000;6.980;2023-04-03T12:41:54;1.98;;;0.85;;
5987;SDS011;3021;51.000;6.980;2023-04-03T12:47:47;2.08;;;0.70;;
5987;SDS011;3021;51.000;6.980;2023-04-03T12:50:17;4.05;;;0.80;;
5987;SDS011;3021;51.000;6.980;2023-04-03T12:52:47;2.72;;;1.08;;
5987;SDS011;3021;51.000;6.980;2023-04-03T12:55:19;1.35;;;0.80;;
5987;SDS011;3021;51.000;6.980;2023-04-03T12:57:46;2.85;;;1.30;;
5987;SDS011;3021;51.000;6.980;2023-04-03T13:00:19;1.63;;;1.10;;
5987;SDS011;3021;51.000;6.980;2023-04-03T13:02:53;3.13;;;1.15;;
5987;SDS011;3021;51.000;6.980;2023-04-03T13:05:19;2.80;;;1.15;;
5987;SDS011;3021;51.000;6.980;2023-04-03T13:08:02;3.45;;;1.40;;
5987;SDS011;3021;51.000;6.980;2023-04-03T13:10:30;3.85;;;1.17;;
5987;SDS011;3021;51.000;6.980;2023-04-03T13:12:58;3.90;;;1.17;;
5987;SDS011;3021;51.000;6.980;2023-04-03T13:15:50;3.13;;;1.27;;
5987;SDS011;3021;51.000;6.980;2023-04-03T13:21:18;2.28;;;1.00;;
5987;SDS011;3021;51.000;6.980;2023-04-03T13:23:45;3.17;;;1.30;;
5987;SDS011;3021;51.000;6.980;2023-04-03T13:26:15;3.67;;;1.08;;
5987;SDS011;3021;51.000;6.980;2023-04-03T13:28:42;2.55;;;1.42;;
5987;SDS011;3021;51.000;6.980;2023-04-03T13:31:19;1.02;;;0.93;;
5987;SDS011;3021;51.000;6.980;2023-04-03T13:36:22;2.08;;;1.10;;
5987;SDS011;3021;51.000;6.980;2023-04-03T13:39:00;3.80;;;1.40;;
5987;SDS011;3021;51.000;6.980;2023-04-03T13:41:53;2.80;;;1.00;;
5987;SDS011;3021;51.000;6.980;2023-04-03T13:46:55;4.40;;;1.58;;
5987;SDS011;3021;51.000;6.980;2023-04-03T13:52:00;3.40;;;1.40;;
5987;SDS011;3021;51.000;6.980;2023-04-03T13:57:01;1.88;;;1.30;;
5987;SDS011;3021;51.000;6.980;2023-04-03T14:02:09;1.80;;;1.13;;
5987;SDS011;3021;51.000;6.980;2023-04-03T14:07:11;3.13;;;1.27;;
5987;SDS011;3021;51.000;6.980;2023-04-03T14:09:38;3.13;;;1.45;;
5987;SDS011;3021;51.000;6.980;2023-04-03T14:12:08;5.82;;;1.38;;
5987;SDS011;3021;51.000;6.980;2023-04-03T14:14:39;4.72;;;1.70;;
5987;SDS011;3021;51.000;6.980;2023-04-03T14:17:19;3.35;;;1.40;;
5987;SDS011;3021;51.000;6.980;2023-04-03T14:19:46;4.97;;;1.30;;
5987;SDS011;3021;51.000;6.980;2023-04-03T14:22:16;4.65;;;1.27;;
5987;SDS011;3021;51.000;6.980;2023-04-03T14:24:43;2.45;;;1.10;;
5987;SDS011;3021;51.000;6.980;2023-04-03T14:27:16;5.25;;;1.63;;
5987;SDS011;3021;51.000;6.980;2023-04-03T14:29:54;3.65;;;1.45;;
5987;SDS011;3021;51.000;6.980;2023-04-03T14:32:21;2.97;;;1.17;;
5987;SDS011;3021;51.000;6.980;2023-04-03T14:34:48;11.70;;;1.88;;
5987;SDS011;3021;51.000;6.980;2023-04-03T14:37:16;2.60;;;1.30;;
5987;SDS011;3021;51.000;6.980;2023-04-03T14:39:54;2.83;;;1.40;;
5987;SDS011;3021;51.000;6.980;2023-04-03T14:42:21;3.63;;;1.40;;
5987;SDS011;3021;51.000;6.980;2023-04-03T14:44:52;4.35;;;1.35;;
5987;SDS011;3021;51.000;6.980;2023-04-03T14:47:22;3.50;;;1.30;;
5987;SDS011;3021;51.000;6.980;2023-04-03T14:49:51;7.57;;;1.55;;
5987;SDS011;3021;51.000;6.980;2023-04-03T14:52:21;3.63;;;1.55;;
5987;SDS011;3021;51.000;6.980;2023-04-03T14:54:52;3.35;;;1.20;;
5987;SDS011;3021;51.000;6.980;2023-04-03T14:57:18;2.97;;;1.35;;
5987;SDS011;3021;51.000;6.980;2023-04-03T14:59:44;3.65;;;1.60;;
5987;SDS011;3021;51.000;6.980;2023-04-03T15:02:22;4.07;;;1.20;;
5987;SDS011;3021;51.000;6.980;2023-04-03T15:04:49;2.80;;;1.20;;
5987;SDS011;3021;51.000;6.980;2023-04-03T15:07:14;3.22;;;1.58;;
5987;SDS011;3021;51.000;6.980;2023-04-03T15:09:41;2.35;;;1.30;;
5987;SDS011;3021;51.000;6.980;2023-04-03T15:12:07;5.03;;;1.70;;
5987;SDS011;3021;51.000;6.980;2023-04-03T15:14:33;5.88;;;1.65;;
5987;SDS011;3021;51.000;6.980;2023-04-03T15:16:59;3.65;;;1.48;;
5987;SDS011;3021;51.000;6.980;2023-04-03T15:19:24;2.60;;;1.50;;
5987;SDS011;3021;51.000;6.980;2023-04-03T15:21:50;3.15;;;1.25;;
5987;SDS011;3021;51.000;6.980;2023-04-03T15:24:15;2.40;;;1.20;;
5987;SDS011;3021;51.000;6.980;2023-04-03T15:26:41;4.15;;;1.40;;
5987;SDS011;3021;51.000;6.980;2023-04-03T15:29:06;3.10;;;1.30;;
5987;SDS011;3021;51.000;6.980;2023-04-03T15:31:32;4.63;;;1.70;;
5987;SDS011;3021;51.000;6.980;2023-04-03T15:33:57;5.03;;;1.98;;
5987;SDS011;3021;51.000;6.980;2023-04-03T15:36:23;3.25;;;1.30;;
5987;SDS011;3021;51.000;6.980;2023-04-03T15:38:48;4.45;;;1.60;;
5987;SDS011;3021;51.000;6.980;2023-04-03T15:41:14;3.03;;;1.17;;
5987;SDS011;3021;51.000;6.980;2023-04-03T15:43:40;4.57;;;1.45;;
5987;SDS011;3021;51.000;6.980;2023-04-03T15:46:05;2.05;;;1.30;;
5987;SDS011;3021;51.000;6.980;2023-04-03T15:48:30;2.80;;;1.55;;
5987;SDS011;3021;51.000;6.980;2023-04-03T15:50:56;6.93;;;1.75;;
5987;SDS011;3021;51.000;6.980;2023-04-03T15:53:21;4.25;;;1.40;;
5987;SDS011;3021;51.000;6.980;2023-04-03T15:55:47;2.33;;;1.30;;
5987;SDS011;3021;51.000;6.980;2023-04-03T15:58:12;6.25;;;1.77;;
5987;SDS011;3021;51.000;6.980;2023-04-03T16:00:38;2.75;;;1.42;;
5987;SDS011;3021;51.000;6.980;2023-04-03T16:03:15;2.28;;;1.25;;
5987;SDS011;3021;51.000;6.980;2023-04-03T16:05:42;4.32;;;1.75;;
5987;SDS011;3021;51.000;6.980;2023-04-03T16:08:07;3.78;;;1.40;;
5987;SDS011;3021;51.000;6.980;2023-04-03T16:10:37;1.77;;;1.13;;
5987;SDS011;3021;51.000;6.980;2023-04-03T16:13:03;5.15;;;1.30;;
5987;SDS011;3021;51.000;6.980;2023-04-03T16:15:30;2.80;;;1.33;;
5987;SDS011;3021;51.000;6.980;2023-04-03T16:17:57;2.45;;;1.10;;
5987;SDS011;3021;51.000;6.980;2023-04-03T16:20:23;3.40;;;1.25;;
5987;SDS011;3021;51.000;6.980;2023-04-03T16:22:49;3.20;;;1.48;;
5987;SDS011;3021;51.000;6.980;2023-04-03T16:25:15;2.88;;;1.33;;
5987;SDS011;3021;51.000;6.980;2023-04-03T16:27:40;4.45;;;1.48;;
5987;SDS011;3021;51.000;6.980;2023-04-03T16:30:06;2.70;;;1.02;;
5987;SDS011;3021;51.000;6.980;2023-04-03T16:32:33;3.25;;;1.60;;
5987;SDS011;3021;51.000;6.980;2023-04-03T16:34:58;3.20;;;1.50;;
5987;SDS011;3021;51.000;6.980;2023-04-03T16:37:25;2.55;;;1.40;;
5987;SDS011;3021;51.000;6.980;2023-04-03T16:39:50;3.40;;;1.50;;
5987;SDS011;3021;51.000;6.980;2023-04-03T16:42:16;2.30;;;1.20;;
5987;SDS011;3021;51.000;6.980;2023-04-03T16:44:41;4.07;;;1.30;;
5987;SDS011;3021;51.000;6.980;2023-04-03T16:47:06;3.70;;;1.48;;
5987;SDS011;3021;51.000;6.980;2023-04-03T16:49:32;2.15;;;1.33;;
5987;SDS011;3021;51.000;6.980;2023-04-03T16:52:02;4.65;;;1.45;;
5987;SDS011;3021;51.000;6.980;2023-04-03T16:54:28;3.15;;;1.05;;
5987;SDS011;3021;51.000;6.980;2023-04-03T16:56:54;4.18;;;1.23;;
5987;SDS011;3021;51.000;6.980;2023-04-03T16:59:20;3.20;;;1.50;;
5987;SDS011;3021;51.000;6.980;2023-04-03T17:01:45;2.47;;;1.10;;
5987;SDS011;3021;51.000;6.980;2023-04-03T17:04:11;2.97;;;1.40;;
5987;SDS011;3021;51.000;6.980;2023-04-03T17:06:37;2.08;;;1.30;;
5987;SDS011;3021;51.000;6.980;2023-04-03T17:09:03;4.95;;;1.30;;
5987;SDS011;3021;51.000;6.980;2023-04-03T17:11:29;3.50;;;1.45;;
5987;SDS011;3021;51.000;6.980;2023-04-03T17:13:55;4.55;;;1.60;;
5987;SDS011;3021;51.000;6.980;2023-04-03T17:16:21;3.78;;;1.65;;